createdAt,value
2023-01-13T00:04:21.179Z,100024.63
2023-01-13T00:09:22.783Z,100021.56
2023-01-13T00:14:24.655Z,100023.38
2023-01-13T00:19:26.138Z,100008.09
2023-01-13T00:24:27.749Z,100003.00
2023-01-13T00:29:29.232Z,100005.78
2023-01-13T00:34:30.716Z,100007.84
2023-01-13T00:39:32.435Z,100022.31
2023-01-13T00:44:33.988Z,100024.59
2023-01-13T00:49:35.521Z,100025.69
2023-01-13T00:54:37.071Z,100024.72
2023-01-13T00:59:38.652Z,100016.88
2023-01-13T01:04:40.145Z,100035.22
2023-01-13T01:09:41.641Z,100007.16
2023-01-13T01:14:43.194Z,100006.56
2023-01-13T01:19:44.729Z,99998.13
2023-01-13T01:24:47.673Z,100004.19
2023-01-13T01:29:49.221Z,100010.03
2023-01-13T01:34:51.504Z,100015.44
2023-01-13T01:39:53.024Z,100026.78
2023-01-13T01:45:17.383Z,100042.50
2023-01-13T01:50:19.739Z,100050.13
2023-01-13T01:55:28.957Z,100038.63
2023-01-13T02:00:30.626Z,100061.06
2023-01-13T02:05:32.188Z,100047.84
2023-01-13T02:10:33.758Z,100029.63
2023-01-13T02:16:13.655Z,100025.41
2023-01-13T02:21:21.180Z,100037.97
2023-01-13T02:26:44.130Z,100018.44
2023-01-13T02:31:49.627Z,100031.66
2023-01-13T02:37:14.458Z,100014.91
2023-01-13T02:42:32.691Z,100036.72
2023-01-13T02:47:38.051Z,100038.38
2023-01-13T02:52:45.523Z,100038.38
2023-01-13T02:57:49.487Z,100034.22
2023-01-13T03:02:51.061Z,100031.97
2023-01-13T03:08:14.164Z,100023.50
2023-01-13T03:13:15.622Z,100009.56
2023-01-13T03:18:45.302Z,100026.50
2023-01-13T03:23:54.622Z,99989.75
2023-01-13T03:29:03.324Z,100006.22
2023-01-13T03:34:12.800Z,100000.44
2023-01-13T03:39:20.097Z,100004.84
2023-01-13T03:44:29.661Z,100013.09
2023-01-13T03:50:00.416Z,100019.28
2023-01-13T03:55:08.218Z,100009.25
2023-01-13T04:00:12.468Z,100014.44
2023-01-13T04:05:14.756Z,100013.09
2023-01-13T04:10:26.072Z,100011.28
2023-01-13T04:15:37.406Z,100012.88
2023-01-13T04:20:39.845Z,100004.91
2023-01-13T04:25:42.754Z,100011.41
2023-01-13T04:30:45.393Z,100015.75
2023-01-13T04:35:47.852Z,100010.19
2023-01-13T04:40:55.150Z,100014.41
2023-01-13T04:45:56.801Z,100000.50
2023-01-13T04:50:58.369Z,100026.19
2023-01-13T04:55:59.990Z,100016.41
2023-01-13T05:01:01.809Z,100019.22
2023-01-13T05:06:03.511Z,100028.09
2023-01-13T05:11:05.235Z,100002.13
2023-01-13T05:16:11.342Z,100012.56
2023-01-13T05:21:13.170Z,100007.63
2023-01-13T05:26:14.712Z,100004.91
2023-01-13T05:31:16.412Z,100013.34
2023-01-13T05:36:18.132Z,100008.81
2023-01-13T05:41:19.675Z,100005.41
2023-01-13T05:46:21.200Z,100016.88
2023-01-13T05:51:22.829Z,100032.03
2023-01-13T05:56:24.369Z,100033.28
2023-01-13T06:01:25.977Z,100029.06
2023-01-13T06:06:27.712Z,100028.56
2023-01-13T06:11:29.321Z,100050.16
2023-01-13T06:16:30.979Z,100055.72
2023-01-13T06:21:33.377Z,100068.03
2023-01-13T06:26:39.489Z,100070.25
2023-01-13T06:31:41.127Z,100072.78
2023-01-13T06:36:48.039Z,100066.50
2023-01-13T06:41:53.974Z,100089.97
2023-01-13T06:46:55.571Z,100086.38
2023-01-13T06:51:57.165Z,100077.31
2023-01-13T06:56:58.718Z,100091.00
2023-01-13T07:02:00.322Z,100096.44
2023-01-13T07:07:02.038Z,100097.25
2023-01-13T07:12:03.880Z,100112.97
2023-01-13T07:17:05.565Z,100110.59
2023-01-13T07:22:07.110Z,100111.13
2023-01-13T07:27:08.712Z,100118.97
2023-01-13T07:32:10.313Z,100125.91
2023-01-13T07:37:11.903Z,100122.28
2023-01-13T07:42:13.427Z,100141.41
2023-01-13T07:47:15.029Z,100138.16
2023-01-13T07:52:16.660Z,100143.25
2023-01-13T07:57:18.357Z,100152.63
2023-01-13T08:02:20.007Z,100147.66
2023-01-13T08:07:21.627Z,100151.00
2023-01-13T08:12:23.132Z,100148.44
2023-01-13T08:17:24.751Z,100153.41
2023-01-13T08:22:26.345Z,100164.13
2023-01-13T08:27:27.993Z,100149.75
2023-01-13T08:32:29.519Z,100165.34
2023-01-13T08:37:31.216Z,100174.56
2023-01-13T08:42:33.040Z,100178.59
2023-01-13T08:47:34.675Z,100190.72
2023-01-13T08:52:36.455Z,100195.50
2023-01-13T08:57:38.316Z,100210.19
2023-01-13T09:02:40.039Z,100210.44
2023-01-13T09:07:41.590Z,100198.56
2023-01-13T09:12:43.168Z,100203.03
2023-01-13T09:17:45.353Z,100189.72
2023-01-13T09:22:46.888Z,100196.22
2023-01-13T09:27:48.549Z,100204.41
2023-01-13T09:32:50.317Z,100205.13
2023-01-13T09:37:51.969Z,100205.97
2023-01-13T09:43:02.962Z,100207.97
2023-01-13T09:48:18.994Z,100213.44
2023-01-13T09:53:25.769Z,100222.72
2023-01-13T09:58:27.379Z,100208.41
2023-01-13T10:03:35.015Z,100215.28
2023-01-13T10:08:42.046Z,100215.88
2023-01-13T10:13:43.932Z,100218.09
2023-01-13T10:19:27.475Z,100216.03
2023-01-13T10:25:04.585Z,100215.88
2023-01-13T10:30:18.358Z,100208.59
2023-01-13T10:35:49.858Z,100217.69
2023-01-13T10:40:57.048Z,100222.13
2023-01-13T10:46:10.611Z,100218.91
2023-01-13T10:51:22.050Z,100233.25
2023-01-13T10:56:27.665Z,100197.88
2023-01-13T11:01:29.354Z,100242.72
2023-01-13T11:06:31.078Z,100243.13
2023-01-13T11:11:45.577Z,100253.84
2023-01-13T11:16:53.827Z,100256.91
2023-01-13T11:22:07.813Z,100268.81
2023-01-13T11:27:31.274Z,100258.09
2023-01-13T11:32:39.426Z,100275.47
2023-01-13T11:37:46.157Z,100270.59
2023-01-13T11:43:01.552Z,100281.94
2023-01-13T11:48:04.117Z,100288.41
2023-01-13T11:53:26.694Z,100280.13
2023-01-13T11:58:52.690Z,100294.66
2023-01-13T12:04:36.354Z,100290.84
2023-01-13T12:10:20.672Z,100289.44
2023-01-13T12:15:22.315Z,100302.19
2023-01-13T12:20:26.688Z,100296.22
2023-01-13T12:25:34.951Z,100296.59
2023-01-13T12:30:44.476Z,100290.69
2023-01-13T12:35:54.620Z,100297.78
2023-01-13T12:41:12.940Z,100303.97
2023-01-13T12:46:20.663Z,100297.75
2023-01-13T12:51:33.802Z,100276.53
2023-01-13T12:56:38.695Z,100290.06
2023-01-13T13:01:40.408Z,100296.56
2023-01-13T13:06:46.822Z,100295.13
2023-01-13T13:11:49.070Z,100294.34
2023-01-13T13:16:52.284Z,100296.34
2023-01-13T13:22:11.999Z,100309.84
2023-01-13T13:27:22.609Z,100317.38
2023-01-13T13:32:30.118Z,100324.53
2023-01-13T13:38:02.787Z,100351.38
2023-01-13T13:43:11.553Z,100363.09
2023-01-13T13:48:22.569Z,100371.88
2023-01-13T13:53:28.306Z,100386.66
2023-01-13T13:58:32.702Z,100397.09
2023-01-13T14:03:39.740Z,100412.34
2023-01-13T14:08:50.255Z,100407.00
2023-01-13T14:14:06.519Z,100426.50
2023-01-13T14:19:31.957Z,100436.44
2023-01-13T14:24:33.929Z,100442.72
2023-01-13T14:29:36.438Z,100441.03
2023-01-13T14:34:38.998Z,100445.88
2023-01-13T14:39:41.496Z,100463.53
2023-01-13T14:44:48.536Z,100471.31
2023-01-13T14:49:59.061Z,100477.69
2023-01-13T14:55:06.547Z,100483.19
2023-01-13T15:00:15.359Z,100482.84
2023-01-13T15:05:16.801Z,100495.31
2023-01-13T15:10:20.904Z,100500.25
2023-01-13T15:15:37.676Z,100501.50
2023-01-13T15:20:40.306Z,100517.13
2023-01-13T15:25:43.028Z,100518.84
2023-01-13T15:30:44.664Z,100547.19
2023-01-13T15:35:51.380Z,100538.97
2023-01-13T15:40:53.027Z,100546.38
2023-01-13T15:45:54.537Z,100552.25
2023-01-13T15:50:56.091Z,100569.66
2023-01-13T15:55:58.840Z,100565.16
2023-01-13T16:01:00.466Z,100575.44
2023-01-13T16:06:02.042Z,100577.44
2023-01-13T16:11:03.616Z,100581.22
2023-01-13T16:16:19.354Z,100597.44
2023-01-13T16:21:21.505Z,100600.38
2023-01-13T16:26:25.972Z,100600.72
2023-01-13T16:31:29.912Z,100616.22
2023-01-13T16:36:35.382Z,100617.88
2023-01-13T16:41:36.984Z,100627.25
2023-01-13T16:46:38.503Z,100625.09
2023-01-13T16:51:40.102Z,100636.66
2023-01-13T16:56:41.617Z,100657.84
2023-01-13T17:01:44.263Z,100667.53
2023-01-13T17:06:59.808Z,100671.91
2023-01-13T17:12:01.315Z,100675.22
2023-01-13T17:17:02.864Z,100686.50
2023-01-13T17:22:04.355Z,100684.94
2023-01-13T17:27:06.011Z,100690.38
2023-01-13T17:32:07.579Z,100678.84
2023-01-13T17:37:09.993Z,100691.97
2023-01-13T17:42:11.558Z,100711.81
2023-01-13T17:47:13.056Z,100723.38
2023-01-13T17:52:14.590Z,100717.34
2023-01-13T17:57:16.076Z,100730.88
2023-01-13T18:02:17.676Z,100735.09
2023-01-13T18:07:19.279Z,100744.38
2023-01-13T18:12:20.869Z,100752.00
2023-01-13T18:17:22.457Z,100751.78
2023-01-13T18:22:23.963Z,100753.84
2023-01-13T18:27:33.507Z,100757.59
2023-01-13T18:32:35.293Z,100771.66
2023-01-13T18:37:41.135Z,100776.38
2023-01-13T18:42:42.673Z,100782.78
2023-01-13T18:47:44.234Z,100789.03
2023-01-13T18:52:46.225Z,100785.56
2023-01-13T18:57:48.532Z,100801.75
2023-01-13T19:02:50.375Z,100806.00
2023-01-13T19:07:51.955Z,100815.56
2023-01-13T19:12:53.477Z,100826.59
2023-01-13T19:17:55.000Z,100818.09
2023-01-13T19:22:56.542Z,100827.84
2023-01-13T19:27:58.040Z,100837.34
2023-01-13T19:32:59.559Z,100837.44
2023-01-13T19:38:01.071Z,100838.53
2023-01-13T19:43:02.626Z,100836.09
2023-01-13T19:48:04.374Z,100838.53
2023-01-13T19:53:07.288Z,100852.16
2023-01-13T19:58:08.921Z,100856.88
2023-01-13T20:03:10.535Z,100858.22
2023-01-13T20:08:12.576Z,100841.84
2023-01-13T20:13:14.970Z,100863.09
2023-01-13T20:18:16.486Z,100878.28
2023-01-13T20:23:17.991Z,100886.34
2023-01-13T20:28:19.492Z,100893.31
2023-01-13T20:33:20.991Z,100903.22
2023-01-13T20:38:22.509Z,100915.81
2023-01-13T20:43:24.010Z,100908.75
2023-01-13T20:48:25.503Z,100903.28
2023-01-13T20:53:27.001Z,100928.34
2023-01-13T20:58:28.545Z,100941.00
2023-01-13T21:03:30.049Z,100942.25
2023-01-13T21:08:31.565Z,100948.28
2023-01-13T21:13:33.061Z,100960.03
2023-01-13T21:18:34.628Z,100953.53
2023-01-13T21:23:36.180Z,100954.91
2023-01-13T21:28:37.705Z,100945.75
2023-01-13T21:33:39.281Z,100952.88
2023-01-13T21:38:41.030Z,100955.97
2023-01-13T21:43:42.505Z,100952.59
2023-01-13T21:48:43.995Z,100958.16
2023-01-13T21:53:45.493Z,100960.59
2023-01-13T21:58:47.439Z,100967.00
2023-01-13T22:03:48.922Z,100981.09
2023-01-13T22:08:50.555Z,100974.88
2023-01-13T22:13:52.097Z,100999.56
2023-01-13T22:18:53.677Z,100998.78
2023-01-13T22:23:55.235Z,100986.16
2023-01-13T22:28:56.801Z,101003.03
2023-01-13T22:33:58.378Z,101007.28
2023-01-13T22:38:59.894Z,101022.34
2023-01-13T22:44:01.412Z,101019.56
2023-01-13T22:49:03.170Z,101018.56
2023-01-13T22:54:05.152Z,101028.75
2023-01-13T22:59:07.685Z,101047.91
2023-01-13T23:04:11.777Z,101044.97
2023-01-13T23:09:13.370Z,101048.44
2023-01-13T23:14:14.857Z,101055.19
2023-01-13T23:19:16.437Z,101042.94
2023-01-13T23:24:17.940Z,101039.81
2023-01-13T23:29:19.518Z,101042.28
2023-01-13T23:34:21.046Z,101046.22
2023-01-13T23:39:22.560Z,101060.16
2023-01-13T23:44:24.114Z,101064.56
2023-01-13T23:49:25.649Z,101078.16
2023-01-13T23:54:27.243Z,101079.75
2023-01-13T23:59:28.743Z,101078.13
